Time;durP1;ratioP1;P1;durP2;ratioP2;P2;SDS_P1;SDS_P2;PMS_P1;PMS_P2;Temp;Humidity;BMP_temperature;BMP_pressure;BME280_temperature;BME280_humidity;BME280_pressure;Samples;Min_cycle;Max_cycle;Signal;HPM_P1;HPM_P2
2022/01/18 00:00:36;;;;;;;20.03;11.90;;;4.50;99.90;;;;;;4953791;29;20485;-75
2022/01/18 00:03:02;;;;;;;18.33;10.93;;;4.40;99.90;;;;;;4953663;28;20907;-75
2022/01/18 00:05:28;;;;;;;16.47;11.17;;;4.50;99.90;;;;;;4953903;29;20424;-75
2022/01/18 00:07:54;;;;;;;20.50;10.80;;;4.40;99.90;;;;;;4952510;29;20440;-75
2022/01/18 00:10:23;;;;;;;22.83;12.23;;;4.40;99.90;;;;;;4953699;29;20237;-75
2022/01/18 00:20:39;;;;;;;24.47;12.17;;;4.50;99.90;;;;;;4953828;29;20185;-75
2022/01/18 00:23:05;;;;;;;25.07;14.50;;;4.50;99.90;;;;;;4953643;29;20421;-75
2022/01/18 00:25:33;;;;;;;21.17;13.63;;;4.60;99.90;;;;;;4953980;29;20445;-74
2022/01/18 00:28:00;;;;;;;22.93;13.30;;;4.50;99.90;;;;;;4953824;29;20210;-74
2022/01/18 00:35:31;;;;;;;28.63;13.10;;;4.60;99.90;;;;;;4953628;29;20918;-74
2022/01/18 00:37:58;;;;;;;21.73;13.60;;;4.60;99.90;;;;;;4953590;29;20179;-75
2022/01/18 00:40:24;;;;;;;19.43;12.17;;;4.60;99.90;;;;;;4953396;29;20398;-75
2022/01/18 00:42:50;;;;;;;24.80;12.30;;;4.60;99.90;;;;;;4955846;28;20428;-75
2022/01/18 00:45:15;;;;;;;16.57;10.93;;;4.60;99.90;;;;;;4957578;29;20551;-75
2022/01/18 00:47:41;;;;;;;20.43;12.20;;;4.60;99.90;;;;;;4957380;29;20244;-75
2022/01/18 00:50:08;;;;;;;19.20;12.60;;;4.60;99.90;;;;;;4957141;29;20233;-75
2022/01/18 00:52:39;;;;;;;16.27;11.20;;;4.70;99.90;;;;;;4957172;28;20572;-75
2022/01/18 00:55:04;;;;;;;23.27;12.37;;;4.70;99.90;;;;;;4957202;29;20426;-75
2022/01/18 00:57:30;;;;;;;19.03;12.77;;;4.70;99.90;;;;;;4955975;29;20426;-75
2022/01/18 00:59:55;;;;;;;23.00;12.57;;;4.70;99.90;;;;;;4957126;29;20338;-74
2022/01/18 05:32:24;;;;;;;34.80;17.83;;;4.50;99.90;;;;;;5231400;23;20484;-72
2022/01/18 05:34:50;;;;;;;29.13;16.47;;;4.50;99.90;;;;;;4916927;29;21037;-74
2022/01/18 05:37:16;;;;;;;29.40;16.03;;;4.50;99.90;;;;;;4918510;29;20255;-74
2022/01/18 05:39:42;;;;;;;32.60;16.57;;;4.50;99.90;;;;;;4917896;29;20196;-73
2022/01/18 05:42:08;;;;;;;36.70;16.77;;;4.50;99.90;;;;;;4917807;29;20844;-74
2022/01/18 05:44:33;;;;;;;29.43;15.53;;;4.50;99.90;;;;;;4917479;29;20189;-74
2022/01/18 05:46:59;;;;;;;33.90;16.67;;;4.50;99.90;;;;;;4918180;29;20248;-75
2022/01/18 05:49:24;;;;;;;34.73;16.83;;;4.50;99.90;;;;;;4917617;29;20214;-74
2022/01/18 05:51:50;;;;;;;28.00;16.27;;;4.40;99.90;;;;;;4918118;29;20207;-74
2022/01/18 05:54:16;;;;;;;31.80;16.67;;;4.50;99.90;;;;;;4918069;29;20554;-74
2022/01/18 05:56:41;;;;;;;32.97;16.60;;;4.50;99.90;;;;;;4922796;29;20210;-73
2022/01/18 05:59:09;;;;;;;30.67;15.47;;;4.40;99.90;;;;;;4918050;29;20184;-74
2022/01/18 06:01:38;;;;;;;32.77;17.57;;;4.40;99.90;;;;;;4917222;29;20210;-74
2022/01/18 06:04:11;;;;;;;33.37;17.40;;;4.40;99.90;;;;;;4917933;29;20426;-74
2022/01/18 06:06:54;;;;;;;35.07;17.57;;;4.30;99.90;;;;;;4917494;29;20446;-74
2022/01/18 06:09:21;;;;;;;41.90;17.80;;;4.40;99.90;;;;;;4917729;29;20440;-73
2022/01/18 06:11:47;;;;;;;38.80;17.53;;;4.40;99.90;;;;;;4916922;29;20466;-74
2022/01/18 06:14:12;;;;;;;30.07;15.30;;;4.30;99.90;;;;;;4917618;29;20393;-74
2022/01/18 06:16:38;;;;;;;36.33;20.33;;;4.40;99.90;;;;;;4917637;29;20681;-74
2022/01/18 06:19:04;;;;;;;27.67;16.47;;;4.30;99.90;;;;;;4917503;29;20206;-74
2022/01/18 06:21:30;;;;;;;33.03;18.23;;;4.30;99.90;;;;;;4917278;29;20221;-74
2022/01/18 06:23:55;;;;;;;35.33;17.93;;;4.30;99.90;;;;;;4917795;29;20219;-74
2022/01/18 06:26:21;;;;;;;35.60;17.20;;;4.40;99.90;;;;;;4916901;29;20451;-74
2022/01/18 06:28:46;;;;;;;31.60;17.53;;;4.30;99.90;;;;;;4917764;29;20211;-74
2022/01/18 06:31:13;;;;;;;33.03;18.10;;;4.30;99.90;;;;;;4916998;29;20659;-74
2022/01/18 06:33:39;;;;;;;29.80;17.30;;;4.40;99.90;;;;;;4911812;29;20195;-74
2022/01/18 06:36:05;;;;;;;30.10;17.07;;;4.40;99.90;;;;;;4916698;29;20986;-74
2022/01/18 06:38:31;;;;;;;31.07;15.93;;;4.30;99.90;;;;;;4915408;29;20204;-74
2022/01/18 06:40:57;;;;;;;32.00;16.70;;;4.30;99.90;;;;;;4916364;29;20468;-74
2022/01/18 06:43:22;;;;;;;26.67;16.63;;;4.30;99.90;;;;;;4916785;29;20197;-75
2022/01/18 06:45:48;;;;;;;32.40;16.43;;;4.30;99.90;;;;;;4917346;29;20231;-74
2022/01/18 06:48:14;;;;;;;30.23;16.73;;;4.30;99.90;;;;;;4916595;29;20207;-73
2022/01/18 06:50:39;;;;;;;37.67;16.60;;;4.30;99.90;;;;;;4916683;29;20192;-74
2022/01/18 06:53:05;;;;;;;28.53;17.57;;;4.30;99.90;;;;;;4916878;29;20424;-74
2022/01/18 06:55:31;;;;;;;32.63;17.20;;;4.30;99.90;;;;;;4899342;29;20191;-74
2022/01/18 06:57:57;;;;;;;32.43;17.57;;;4.30;99.90;;;;;;4916767;29;20696;-74
2022/01/18 07:00:22;;;;;;;29.60;16.30;;;4.30;99.90;;;;;;4916546;29;20198;-74
2022/01/18 07:02:48;;;;;;;37.80;19.10;;;4.30;99.90;;;;;;4916785;29;20441;-73
2022/01/18 07:05:14;;;;;;;34.97;16.80;;;4.30;99.90;;;;;;4915330;29;20194;-72
2022/01/18 07:07:41;;;;;;;31.63;16.90;;;4.40;99.90;;;;;;4916795;29;20636;-73
2022/01/18 07:10:08;;;;;;;27.93;16.97;;;4.30;99.90;;;;;;4916312;29;20600;-74
2022/01/18 07:12:35;;;;;;;31.03;15.60;;;4.40;99.90;;;;;;4916019;29;20475;-74
2022/01/18 07:15:06;;;;;;;36.20;18.03;;;4.40;99.90;;;;;;4916020;29;20499;-75
2022/01/18 07:17:33;;;;;;;33.33;16.43;;;4.40;99.90;;;;;;4916609;29;20424;-74
2022/01/18 07:19:58;;;;;;;30.60;17.07;;;4.40;99.90;;;;;;4916443;29;20396;-74
2022/01/18 07:22:24;;;;;;;34.50;18.30;;;4.40;99.90;;;;;;4915383;29;20497;-74
2022/01/18 07:24:55;;;;;;;35.40;16.83;;;4.40;99.90;;;;;;4916291;29;20258;-74
2022/01/18 07:27:21;;;;;;;30.93;16.33;;;4.40;99.90;;;;;;4915522;29;20418;-74
2022/01/18 07:29:47;;;;;;;29.30;15.30;;;4.40;99.90;;;;;;4915356;29;20926;-75
2022/01/18 07:32:12;;;;;;;32.20;17.27;;;4.40;99.90;;;;;;4915072;29;20284;-75
2022/01/18 07:34:46;;;;;;;31.43;17.57;;;4.50;99.90;;;;;;4916099;29;20195;-75
2022/01/18 07:37:11;;;;;;;42.80;18.07;;;4.50;99.90;;;;;;4915543;29;20199;-76
2022/01/18 07:39:37;;;;;;;30.47;17.60;;;4.40;99.90;;;;;;4916200;29;20459;-75
2022/01/18 07:42:03;;;;;;;30.63;16.00;;;4.40;99.90;;;;;;4914748;29;20650;-76
2022/01/18 07:44:30;;;;;;;34.83;17.10;;;4.50;99.90;;;;;;4915889;29;20606;-76
2022/01/18 07:46:55;;;;;;;40.83;18.00;;;4.50;99.90;;;;;;4915853;29;20181;-75
2022/01/18 07:49:21;;;;;;;28.07;15.67;;;4.50;99.90;;;;;;4912682;29;20479;-74
2022/01/18 07:51:46;;;;;;;36.23;16.67;;;4.60;99.90;;;;;;4914077;29;20204;-77
2022/01/18 07:54:12;;;;;;;34.10;17.43;;;4.60;99.90;;;;;;4914204;29;20197;-75
2022/01/18 07:56:41;;;;;;;36.83;18.60;;;4.60;99.90;;;;;;4915868;29;20547;-75
2022/01/18 07:59:07;;;;;;;37.47;18.40;;;4.60;99.90;;;;;;4915340;29;20242;-74
2022/01/18 08:01:32;;;;;;;37.47;16.97;;;4.60;99.90;;;;;;4916256;29;21053;-74
2022/01/18 08:03:58;;;;;;;42.13;18.50;;;4.60;99.90;;;;;;4914780;29;20185;-73
2022/01/18 08:06:53;;;;;;;31.33;15.73;;;4.70;99.90;;;;;;4915071;29;20201;-74
2022/01/18 08:09:19;;;;;;;44.43;18.13;;;4.70;99.90;;;;;;4904787;29;20232;-74
2022/01/18 08:11:46;;;;;;;34.77;15.80;;;4.80;99.90;;;;;;4914003;29;20619;-74
2022/01/18 08:14:17;;;;;;;28.13;14.53;;;4.90;99.90;;;;;;4914435;29;20520;-75
2022/01/18 08:16:49;;;;;;;31.40;15.10;;;5.00;99.90;;;;;;4914962;29;20791;-74
2022/01/18 08:19:16;;;;;;;27.50;15.53;;;5.10;99.90;;;;;;4914010;29;20456;-74
2022/01/18 08:21:42;;;;;;;33.07;15.83;;;5.20;99.90;;;;;;4914909;29;20486;-74
2022/01/18 08:24:08;;;;;;;31.67;17.20;;;5.20;99.90;;;;;;4914901;29;20730;-75
2022/01/18 08:26:33;;;;;;;32.10;16.30;;;5.30;99.90;;;;;;4914550;29;20321;-74
2022/01/18 08:28:59;;;;;;;31.07;15.00;;;5.40;99.90;;;;;;4913997;29;20212;-74
2022/01/18 08:31:25;;;;;;;30.67;17.30;;;5.50;99.90;;;;;;4915164;29;20630;-74
2022/01/18 08:33:50;;;;;;;25.50;14.93;;;5.50;99.90;;;;;;4914371;29;20555;-75
2022/01/18 08:36:16;;;;;;;32.20;14.73;;;5.60;99.90;;;;;;4914394;29;20185;-73
2022/01/18 08:38:41;;;;;;;31.33;15.23;;;5.70;99.90;;;;;;4914733;29;20193;-74
2022/01/18 08:41:07;;;;;;;32.80;16.43;;;5.60;99.90;;;;;;4914911;29;20299;-74
2022/01/18 08:43:36;;;;;;;27.93;14.37;;;5.60;99.90;;;;;;4914376;29;20271;-74
2022/01/18 08:46:03;;;;;;;28.10;15.00;;;5.60;99.90;;;;;;4915121;29;20179;-74
2022/01/18 08:48:29;;;;;;;25.43;14.90;;;5.70;99.90;;;;;;4914864;29;20471;-74
2022/01/18 08:50:55;;;;;;;24.07;12.90;;;5.70;99.90;;;;;;4914631;29;20492;-74
2022/01/18 08:53:21;;;;;;;25.60;14.47;;;5.80;99.90;;;;;;4914478;29;20419;-74
2022/01/18 08:55:47;;;;;;;26.20;14.40;;;5.90;99.90;;;;;;4914739;29;20419;-74
2022/01/18 08:58:13;;;;;;;24.93;13.97;;;6.00;99.90;;;;;;4914972;29;20197;-74
2022/01/18 09:00:38;;;;;;;24.80;13.60;;;5.90;99.90;;;;;;4914455;29;20196;-73
2022/01/18 09:03:05;;;;;;;22.30;13.50;;;6.00;99.90;;;;;;4915880;29;20178;-73
2022/01/18 09:05:31;;;;;;;26.63;14.23;;;6.00;99.90;;;;;;4916966;29;20581;-74
2022/01/18 09:07:59;;;;;;;25.17;13.10;;;6.20;99.90;;;;;;4918590;29;20436;-73
2022/01/18 09:10:26;;;;;;;26.00;13.90;;;6.20;99.90;;;;;;4918461;29;20201;-74
2022/01/18 09:12:52;;;;;;;29.87;13.90;;;6.20;99.90;;;;;;4918149;29;20495;-74
2022/01/18 09:15:18;;;;;;;25.77;14.43;;;6.10;99.90;;;;;;4918185;29;20500;-74
2022/01/18 09:17:43;;;;;;;25.87;14.03;;;6.00;99.90;;;;;;4918848;29;20186;-74
2022/01/18 09:20:12;;;;;;;30.73;14.43;;;5.90;99.90;;;;;;4918714;29;20181;-73
2022/01/18 09:22:40;;;;;;;22.13;13.83;;;5.80;99.90;;;;;;4917826;29;20703;-74
2022/01/18 09:25:09;;;;;;;29.00;14.40;;;5.80;99.90;;;;;;4918152;29;20429;-73
2022/01/18 09:27:35;;;;;;;27.47;14.17;;;6.00;99.90;;;;;;4917515;29;20472;-74
2022/01/18 09:30:00;;;;;;;30.00;13.60;;;6.10;99.90;;;;;;4918634;29;20426;-73
2022/01/18 09:32:26;;;;;;;23.00;11.90;;;6.10;99.90;;;;;;4917454;29;20588;-74
2022/01/18 09:34:52;;;;;;;27.57;13.13;;;6.30;99.90;;;;;;4917517;29;20678;-74
2022/01/18 09:37:18;;;;;;;23.53;12.13;;;6.30;99.90;;;;;;4918090;29;20312;-74
2022/01/18 09:39:44;;;;;;;22.70;13.10;;;6.40;99.90;;;;;;4918050;29;20486;-73
2022/01/18 09:42:11;;;;;;;26.13;13.83;;;6.50;99.90;;;;;;4917292;29;20213;-74
2022/01/18 09:44:37;;;;;;;22.53;13.73;;;6.50;99.90;;;;;;4917573;29;20193;-73
2022/01/18 09:47:04;;;;;;;21.83;13.70;;;6.60;99.90;;;;;;4917822;29;20420;-73
2022/01/18 09:49:30;;;;;;;31.73;15.33;;;6.60;99.90;;;;;;4917769;29;20481;-74
2022/01/18 09:51:55;;;;;;;28.63;14.50;;;6.80;99.90;;;;;;4917737;29;20807;-73
2022/01/18 09:54:21;;;;;;;27.63;16.53;;;7.10;99.90;;;;;;4917181;29;20444;-74
2022/01/18 09:56:46;;;;;;;24.23;13.50;;;7.70;99.90;;;;;;4917813;29;20220;-74
2022/01/18 09:59:12;;;;;;;20.73;10.70;;;8.20;99.90;;;;;;4917782;29;20192;-74
2022/01/18 10:01:38;;;;;;;19.20;9.90;;;8.70;99.90;;;;;;4917486;29;20212;-74
2022/01/18 10:04:18;;;;;;;21.77;10.10;;;9.00;99.90;;;;;;4917444;29;20183;-74
2022/01/18 10:06:46;;;;;;;14.53;9.07;;;9.10;99.90;;;;;;4917158;29;20201;-74
2022/01/18 10:09:14;;;;;;;16.20;9.17;;;9.20;99.90;;;;;;4917629;29;20510;-74
2022/01/18 10:11:59;;;;;;;12.27;8.47;;;9.50;99.90;;;;;;4917386;29;20984;-74
2022/01/18 10:14:24;;;;;;;10.07;5.90;;;9.80;99.90;;;;;;4916689;29;20413;-73
2022/01/18 10:16:50;;;;;;;10.00;5.60;;;9.90;99.90;;;;;;4917136;29;20946;-73
2022/01/18 10:19:29;;;;;;;10.80;5.40;;;10.00;99.90;;;;;;4917587;29;20202;-75
2022/01/18 10:22:11;;;;;;;12.53;5.90;;;10.10;99.90;;;;;;4917210;29;20205;-75
2022/01/18 10:24:37;;;;;;;14.20;7.63;;;10.40;99.90;;;;;;4917813;29;20415;-74
2022/01/18 10:27:03;;;;;;;12.73;7.50;;;10.60;99.90;;;;;;4916383;29;20453;-74
2022/01/18 10:29:36;;;;;;;12.40;8.20;;;10.80;99.90;;;;;;4917065;29;20476;-74
2022/01/18 10:32:17;;;;;;;16.17;9.00;;;10.80;99.90;;;;;;4916429;29;20509;-74
2022/01/18 10:37:29;;;;;;;12.97;7.90;;;10.80;99.90;;;;;;4917155;29;20420;-74
2022/01/18 10:39:59;;;;;;;12.13;8.40;;;10.60;99.90;;;;;;4916128;29;20538;-75
2022/01/18 10:42:44;;;;;;;13.13;8.50;;;10.20;99.90;;;;;;4917271;29;20463;-75
2022/01/18 10:45:14;;;;;;;16.67;8.77;;;10.00;99.90;;;;;;4916503;29;20445;-75
2022/01/18 10:47:52;;;;;;;12.90;6.47;;;10.10;99.90;;;;;;4916896;29;20519;-74
2022/01/18 10:50:19;;;;;;;18.10;9.47;;;10.00;99.90;;;;;;4915258;29;20470;-75
2022/01/18 10:52:44;;;;;;;20.33;9.40;;;9.90;99.90;;;;;;4916546;29;20448;-74
2022/01/18 10:55:24;;;;;;;15.80;9.63;;;9.90;99.90;;;;;;4916173;29;20419;-74
2022/01/18 10:57:51;;;;;;;15.90;9.30;;;10.00;99.90;;;;;;4914637;29;20254;-75
2022/01/18 11:00:22;;;;;;;14.43;9.33;;;9.80;99.90;;;;;;4916928;29;20412;-74
2022/01/18 11:02:53;;;;;;;15.57;9.60;;;9.60;99.90;;;;;;4915977;29;20924;-74
2022/01/18 11:05:28;;;;;;;21.30;9.83;;;9.00;99.90;;;;;;4916629;29;20390;-75
2022/01/18 11:07:55;;;;;;;19.57;11.77;;;8.80;99.90;;;;;;4916144;29;20501;-74
2022/01/18 11:10:26;;;;;;;15.57;9.70;;;8.60;99.90;;;;;;4916554;29;20826;-74
2022/01/18 11:13:04;;;;;;;14.13;7.60;;;8.50;99.90;;;;;;4915773;29;20461;-75
2022/01/18 11:15:36;;;;;;;13.67;8.00;;;8.30;99.90;;;;;;4916661;29;20408;-75
2022/01/18 11:18:07;;;;;;;13.97;8.77;;;8.10;99.90;;;;;;4915862;29;20961;-74
2022/01/18 11:20:37;;;;;;;18.27;10.03;;;7.80;99.90;;;;;;4916493;29;20446;-74
2022/01/18 11:23:07;;;;;;;18.40;8.60;;;7.60;99.90;;;;;;4915510;29;20442;-74
2022/01/18 11:25:33;;;;;;;17.07;7.83;;;7.50;99.90;;;;;;4915410;29;20823;-74
2022/01/18 11:27:59;;;;;;;18.00;9.13;;;7.40;99.90;;;;;;4915178;29;20472;-75
2022/01/18 11:30:32;;;;;;;18.07;8.53;;;7.20;99.90;;;;;;4915921;29;20526;-75
2022/01/18 11:33:00;;;;;;;22.93;9.47;;;7.10;99.90;;;;;;4915086;29;20450;-74
2022/01/18 11:35:51;;;;;;;17.23;9.80;;;7.10;99.90;;;;;;4915661;29;20435;-74
2022/01/18 11:38:27;;;;;;;17.17;8.63;;;7.10;99.90;;;;;;4915724;29;20413;-72
2022/01/18 11:40:54;;;;;;;20.20;10.70;;;7.00;99.90;;;;;;4915367;29;20470;-74
2022/01/18 11:43:35;;;;;;;20.23;10.73;;;6.90;99.90;;;;;;4915507;29;20484;-74
2022/01/18 11:46:18;;;;;;;19.57;10.93;;;6.80;99.90;;;;;;4915272;29;20457;-74
2022/01/18 11:48:45;;;;;;;22.33;12.70;;;6.90;99.90;;;;;;4915568;29;20901;-74
2022/01/18 11:51:16;;;;;;;16.37;9.53;;;6.80;99.90;;;;;;4915317;29;20491;-74
2022/01/18 11:56:35;;;;;;;16.47;8.87;;;6.80;99.90;;;;;;4915519;29;20457;-75
2022/01/18 11:59:17;;;;;;;15.43;7.47;;;6.80;99.90;;;;;;4896711;29;20761;-73
2022/01/18 12:01:58;;;;;;;17.70;9.90;;;6.80;99.90;;;;;;4898998;29;20967;-75
2022/01/18 12:04:40;;;;;;;14.27;8.10;;;6.70;99.90;;;;;;4896498;29;20397;-74
2022/01/18 12:07:10;;;;;;;11.33;6.90;;;6.60;99.90;;;;;;4897616;29;20392;-74
2022/01/18 12:09:40;;;;;;;14.27;8.27;;;6.60;99.90;;;;;;4908488;29;20546;-74
2022/01/18 12:12:41;;;;;;;12.33;8.00;;;6.70;99.90;;;;;;4914663;29;20486;-75
2022/01/18 12:15:16;;;;;;;11.50;7.13;;;6.60;99.90;;;;;;4914793;29;20425;-75
2022/01/18 12:17:51;;;;;;;13.50;7.67;;;6.70;99.90;;;;;;4915536;29;20415;-74
2022/01/18 12:20:32;;;;;;;15.40;7.90;;;6.70;99.90;;;;;;4914558;29;20441;-74
2022/01/18 12:23:03;;;;;;;11.77;7.33;;;6.80;99.90;;;;;;4915132;29;20477;-74
2022/01/18 12:25:33;;;;;;;13.90;8.80;;;6.70;99.90;;;;;;4914649;29;20480;-75
2022/01/18 12:28:21;;;;;;;16.07;8.70;;;6.70;99.90;;;;;;4914503;29;20440;-75
2022/01/18 12:31:04;;;;;;;12.53;7.97;;;6.70;99.90;;;;;;4914173;29;20583;-74
2022/01/18 12:33:43;;;;;;;16.03;7.97;;;6.60;99.90;;;;;;4914557;29;20426;-74
2022/01/18 12:36:28;;;;;;;11.90;6.43;;;6.60;99.90;;;;;;4914880;29;20440;-74
2022/01/18 12:38:59;;;;;;;13.50;6.20;;;6.60;99.90;;;;;;4914687;29;20458;-75
2022/01/18 12:41:47;;;;;;;10.50;5.10;;;6.50;99.90;;;;;;4914051;29;20467;-74
2022/01/18 12:44:22;;;;;;;11.00;5.73;;;6.40;99.90;;;;;;4895962;29;20427;-75
2022/01/18 12:46:56;;;;;;;16.53;5.77;;;6.40;99.90;;;;;;4906191;29;20457;-75
2022/01/18 12:49:22;;;;;;;11.87;5.83;;;6.40;99.90;;;;;;4915022;29;20840;-74
2022/01/18 12:51:55;;;;;;;12.40;5.40;;;6.50;99.90;;;;;;4914462;29;20472;-75
2022/01/18 12:54:37;;;;;;;11.07;4.43;;;6.50;99.90;;;;;;4914332;29;20455;-75
2022/01/18 12:57:38;;;;;;;9.50;5.23;;;6.50;99.90;;;;;;4914282;29;20423;-75
2022/01/18 13:00:08;;;;;;;7.30;4.30;;;6.60;99.90;;;;;;4856447;29;20460;-74
2022/01/18 13:02:35;;;;;;;8.53;4.13;;;6.70;99.90;;;;;;4892525;29;20481;-74
2022/01/18 13:05:03;;;;;;;10.03;3.03;;;6.60;99.90;;;;;;4914237;29;20855;-75
2022/01/18 13:07:29;;;;;;;4.30;3.20;;;6.60;99.90;;;;;;4914882;29;20422;-74
2022/01/18 13:10:04;;;;;;;3.67;2.30;;;6.60;99.90;;;;;;4914332;29;20417;-74
2022/01/18 13:12:35;;;;;;;9.30;3.70;;;6.70;99.90;;;;;;4914421;29;20208;-75
2022/01/18 13:15:04;;;;;;;12.43;3.83;;;6.60;99.90;;;;;;4913674;29;20433;-75
2022/01/18 13:23:34;;;;;;;8.50;3.97;;;6.70;99.90;;;;;;4914829;29;20470;-75
2022/01/18 13:26:01;;;;;;;9.73;3.90;;;6.70;99.90;;;;;;4916277;29;20833;-75
2022/01/18 13:28:39;;;;;;;4.10;3.50;;;6.70;99.90;;;;;;4913612;29;20493;-75
2022/01/18 13:31:19;;;;;;;5.13;3.80;;;6.60;99.90;;;;;;4913598;29;20478;-76
2022/01/18 13:33:56;;;;;;;14.27;4.83;;;6.50;99.90;;;;;;4914147;29;20759;-75
2022/01/18 13:36:23;;;;;;;11.20;5.90;;;6.40;99.90;;;;;;4914228;29;20422;-75
2022/01/18 13:38:50;;;;;;;6.90;4.73;;;6.40;99.90;;;;;;4914650;29;20426;-75
2022/01/18 13:41:17;;;;;;;7.93;3.97;;;6.30;99.90;;;;;;4913846;29;20434;-75
2022/01/18 13:43:43;;;;;;;7.70;4.53;;;6.20;99.90;;;;;;4914348;29;21073;-75
2022/01/18 13:46:09;;;;;;;7.20;3.70;;;6.20;99.90;;;;;;4914581;29;20496;-75
2022/01/18 13:48:35;;;;;;;10.70;4.10;;;6.30;99.90;;;;;;4914060;29;20449;-75
2022/01/18 13:51:14;;;;;;;11.40;3.20;;;6.40;99.90;;;;;;4916734;29;20494;-75
2022/01/18 13:53:41;;;;;;;6.13;3.40;;;6.50;99.90;;;;;;4917321;29;20974;-76
2022/01/18 13:56:20;;;;;;;7.47;4.13;;;6.60;99.90;;;;;;4917435;29;20481;-76
2022/01/18 13:58:48;;;;;;;3.23;2.47;;;6.60;99.90;;;;;;4917342;29;20444;-75
2022/01/18 14:01:24;;;;;;;9.13;3.57;;;6.70;99.90;;;;;;4917539;29;20533;-75
2022/01/18 14:03:55;;;;;;;8.00;2.97;;;6.90;99.90;;;;;;4917088;29;20450;-75
2022/01/18 14:06:32;;;;;;;1.50;1.40;;;7.00;99.90;;;;;;4917809;29;20764;-75
2022/01/18 14:08:57;;;;;;;3.33;1.83;;;7.10;99.90;;;;;;4917275;29;20444;-75
2022/01/18 14:11:25;;;;;;;3.10;1.40;;;7.00;99.90;;;;;;4915231;29;20476;-75
2022/01/18 14:13:53;;;;;;;8.60;2.47;;;7.10;99.90;;;;;;4917230;29;20197;-77
2022/01/18 14:16:33;;;;;;;3.73;2.57;;;7.20;99.90;;;;;;4917259;29;20447;-76
2022/01/18 14:19:08;;;;;;;3.00;2.10;;;7.20;99.90;;;;;;4917505;29;20421;-76
2022/01/18 14:21:44;;;;;;;3.27;2.43;;;7.10;99.90;;;;;;4916567;29;20477;-74
2022/01/18 14:24:18;;;;;;;3.00;2.13;;;7.20;99.90;;;;;;4917066;29;20405;-75
2022/01/18 14:26:53;;;;;;;3.60;2.27;;;7.20;99.90;;;;;;4917203;29;20503;-74
2022/01/18 14:29:42;;;;;;;3.13;2.13;;;7.20;99.90;;;;;;4917383;29;20481;-76
2022/01/18 14:32:12;;;;;;;5.13;2.30;;;7.30;99.90;;;;;;4910934;29;20481;-74
2022/01/18 14:34:43;;;;;;;2.90;2.13;;;7.20;99.90;;;;;;4916903;29;20462;-75
2022/01/18 14:37:12;;;;;;;2.77;1.87;;;7.10;99.90;;;;;;4916956;29;20492;-74
2022/01/18 14:40:00;;;;;;;4.07;2.20;;;6.90;99.90;;;;;;4917298;29;20476;-74
2022/01/18 14:42:30;;;;;;;5.63;2.33;;;6.80;99.90;;;;;;4916291;29;20469;-75
2022/01/18 14:47:54;;;;;;;4.67;2.10;;;6.60;99.90;;;;;;4884624;29;20456;-74
2022/01/18 14:50:22;;;;;;;2.20;1.70;;;6.50;99.90;;;;;;4917126;29;20851;-75
2022/01/18 14:52:49;;;;;;;4.03;2.17;;;6.50;99.90;;;;;;4916517;29;20574;-74
2022/01/18 14:55:19;;;;;;;3.30;1.50;;;6.50;99.90;;;;;;4916360;29;20532;-74
2022/01/18 14:57:46;;;;;;;3.57;2.40;;;6.50;99.90;;;;;;4916223;29;20848;-75
2022/01/18 15:00:15;;;;;;;6.20;3.10;;;6.40;99.90;;;;;;4916283;29;20429;-75
2022/01/18 15:02:41;;;;;;;3.70;1.97;;;6.30;99.90;;;;;;4916187;29;20446;-74
2022/01/18 15:05:10;;;;;;;2.33;2.13;;;6.30;99.90;;;;;;4915820;29;20808;-75
2022/01/18 15:07:37;;;;;;;3.93;2.00;;;6.30;99.90;;;;;;4916692;29;20422;-75
2022/01/18 15:10:06;;;;;;;4.30;2.60;;;6.20;99.90;;;;;;4916070;29;20469;-75
2022/01/18 15:12:35;;;;;;;4.07;2.40;;;6.10;99.90;;;;;;4915998;29;20463;-76
2022/01/18 15:15:01;;;;;;;7.77;2.80;;;6.10;99.90;;;;;;4915523;29;20473;-75
2022/01/18 15:17:26;;;;;;;4.63;3.10;;;6.20;99.90;;;;;;4916807;29;20416;-75
2022/01/18 15:19:52;;;;;;;5.20;2.90;;;6.10;99.90;;;;;;4914807;29;20190;-75
2022/01/18 15:22:18;;;;;;;4.40;3.20;;;6.10;99.90;;;;;;4916278;29;20209;-75
2022/01/18 15:24:43;;;;;;;4.70;2.93;;;6.10;99.90;;;;;;4915811;29;20185;-75
2022/01/18 15:27:09;;;;;;;6.50;2.77;;;6.10;99.90;;;;;;4916129;29;20970;-75
2022/01/18 15:29:35;;;;;;;6.00;3.00;;;6.10;99.90;;;;;;4916806;29;20213;-75
2022/01/18 15:32:00;;;;;;;5.83;3.80;;;6.10;99.90;;;;;;4915576;29;20226;-75
2022/01/18 15:34:27;;;;;;;5.00;3.40;;;6.10;99.90;;;;;;4915841;29;20271;-75
2022/01/18 15:36:53;;;;;;;8.20;3.40;;;6.10;99.90;;;;;;4916331;29;20303;-76
2022/01/18 15:39:20;;;;;;;7.83;3.60;;;6.00;99.90;;;;;;4916220;29;20581;-75
2022/01/18 15:41:47;;;;;;;6.50;3.83;;;6.00;99.90;;;;;;4915664;29;20221;-75
2022/01/18 15:44:14;;;;;;;5.40;2.43;;;6.00;99.90;;;;;;4915686;29;20451;-76
2022/01/18 15:46:39;;;;;;;3.77;3.23;;;5.90;99.90;;;;;;4915759;29;20511;-75
2022/01/18 15:49:06;;;;;;;4.73;2.60;;;5.90;99.90;;;;;;4914081;29;20575;-75
2022/01/18 15:51:33;;;;;;;6.30;3.50;;;5.90;99.90;;;;;;4915859;29;20274;-75
2022/01/18 15:53:59;;;;;;;6.63;3.20;;;5.90;99.90;;;;;;4914869;29;20449;-76
2022/01/18 15:56:25;;;;;;;4.50;3.10;;;5.90;99.90;;;;;;4915668;29;20880;-75
2022/01/18 15:58:52;;;;;;;5.03;3.17;;;5.90;99.90;;;;;;4915004;29;20492;-75
2022/01/18 16:01:17;;;;;;;4.40;2.90;;;5.90;99.90;;;;;;4915681;29;20452;-76
2022/01/18 16:03:43;;;;;;;11.53;3.40;;;5.90;99.90;;;;;;4914669;29;20435;-75
2022/01/18 16:06:08;;;;;;;6.60;3.90;;;5.90;99.90;;;;;;4915606;29;20570;-74
2022/01/18 16:08:36;;;;;;;8.17;3.60;;;5.90;99.90;;;;;;4915488;29;20208;-74
2022/01/18 16:11:03;;;;;;;2.13;1.80;;;5.80;99.90;;;;;;4914895;29;20215;-75
2022/01/18 16:13:28;;;;;;;3.27;2.20;;;5.80;99.90;;;;;;4914494;29;20513;-75
2022/01/18 16:15:55;;;;;;;6.13;1.90;;;5.80;99.90;;;;;;4914366;29;20898;-75
2022/01/18 16:18:22;;;;;;;2.97;2.10;;;5.80;99.90;;;;;;4914846;29;20192;-74
2022/01/18 16:20:47;;;;;;;5.23;2.77;;;5.80;99.90;;;;;;4915098;29;20453;-75
2022/01/18 16:23:13;;;;;;;4.10;2.73;;;5.80;99.90;;;;;;4913325;29;20505;-76
2022/01/18 16:25:39;;;;;;;2.90;2.23;;;5.80;99.90;;;;;;4915348;29;20448;-74
2022/01/18 16:28:05;;;;;;;2.93;1.83;;;5.80;99.90;;;;;;4915465;29;20219;-74
2022/01/18 16:30:31;;;;;;;6.13;2.30;;;5.80;99.90;;;;;;4915395;29;20421;-73
2022/01/18 16:32:57;;;;;;;6.00;3.00;;;5.80;99.90;;;;;;4914225;29;20960;-75
2022/01/18 16:35:23;;;;;;;3.90;2.60;;;5.70;99.90;;;;;;4915482;29;20424;-75
2022/01/18 16:37:48;;;;;;;5.10;3.50;;;5.80;99.90;;;;;;4915281;29;20208;-74
2022/01/18 16:40:15;;;;;;;5.57;3.33;;;5.70;99.90;;;;;;4915715;29;20251;-75
2022/01/18 16:42:43;;;;;;;6.60;3.20;;;5.70;99.90;;;;;;4914907;29;20585;-75
2022/01/18 16:45:10;;;;;;;10.27;3.90;;;5.70;99.90;;;;;;4915436;29;20798;-75
2022/01/18 16:47:36;;;;;;;3.73;2.30;;;5.70;99.90;;;;;;4915694;29;20523;-75
2022/01/18 16:50:04;;;;;;;3.67;2.63;;;5.60;99.90;;;;;;4914929;29;20437;-75
2022/01/18 16:52:29;;;;;;;6.20;2.57;;;5.60;99.90;;;;;;4915503;29;20412;-76
2022/01/18 16:54:55;;;;;;;9.93;4.00;;;5.60;99.90;;;;;;4911165;29;20508;-75
2022/01/18 16:57:21;;;;;;;3.07;2.60;;;5.60;99.90;;;;;;4912141;29;20200;-75
2022/01/18 16:59:47;;;;;;;1.97;1.80;;;5.60;99.90;;;;;;4910995;29;20451;-75
2022/01/18 17:02:12;;;;;;;6.20;2.63;;;5.60;99.90;;;;;;4912230;29;20291;-76
2022/01/18 17:04:38;;;;;;;4.23;2.57;;;5.50;99.90;;;;;;4911229;29;20298;-75
2022/01/18 17:07:04;;;;;;;3.17;2.07;;;5.50;99.90;;;;;;4912845;29;20231;-75
2022/01/18 17:09:31;;;;;;;3.10;2.00;;;5.50;99.90;;;;;;4912215;29;20222;-76
2022/01/18 17:11:57;;;;;;;2.60;2.40;;;5.50;99.90;;;;;;4911535;29;21077;-75
2022/01/18 17:14:23;;;;;;;3.17;2.33;;;5.50;99.90;;;;;;4910822;29;20440;-76
2022/01/18 17:16:49;;;;;;;5.73;3.63;;;5.50;99.90;;;;;;4908405;29;20811;-75
2022/01/18 17:19:14;;;;;;;3.73;2.53;;;5.40;99.90;;;;;;4910538;29;20298;-75
2022/01/18 17:21:40;;;;;;;2.63;2.43;;;5.40;99.90;;;;;;4911546;29;20307;-75
2022/01/18 17:24:06;;;;;;;5.63;3.30;;;5.40;99.90;;;;;;4912925;29;20190;-75
2022/01/18 17:26:31;;;;;;;3.10;2.47;;;5.30;99.90;;;;;;4915530;29;20700;-75
2022/01/18 17:28:57;;;;;;;3.97;2.87;;;5.40;99.90;;;;;;4915974;29;20228;-74
2022/01/18 17:31:23;;;;;;;2.50;2.30;;;5.30;99.90;;;;;;4915277;29;20835;-75
2022/01/18 17:33:48;;;;;;;3.40;2.60;;;5.30;99.90;;;;;;4914911;29;20421;-75
2022/01/18 17:36:14;;;;;;;5.43;2.93;;;5.30;99.90;;;;;;4915437;29;20208;-74
2022/01/18 17:38:41;;;;;;;5.90;3.80;;;5.30;99.90;;;;;;4912624;29;20705;-75
2022/01/18 17:41:07;;;;;;;3.97;2.90;;;5.30;99.90;;;;;;4907847;29;20693;-75
2022/01/18 17:43:33;;;;;;;4.90;3.20;;;5.30;99.90;;;;;;4912142;29;20469;-74
2022/01/18 17:45:58;;;;;;;4.03;3.30;;;5.30;99.90;;;;;;4914764;29;20415;-75
2022/01/18 17:48:24;;;;;;;6.53;2.97;;;5.30;99.90;;;;;;4915595;29;20215;-75
2022/01/18 17:50:50;;;;;;;3.70;3.37;;;5.30;99.90;;;;;;4914870;29;20238;-75